Time;durP1;ratioP1;P1;durP2;ratioP2;P2;SDS_P1;SDS_P2;PMS_P1;PMS_P2;Temp;Humidity;BMP_temperature;BMP_pressure;BME280_temperature;BME280_humidity;BME280_pressure;Samples;Min_cycle;Max_cycle;Signal;HPM_P1;HPM_P2
2024/01/07 00:01:13;;;;;;;;;;;-2.10;100.00;;;;;;6235040;23;20002;-65
2024/01/07 00:03:41;;;;;;;;;;;-2.10;100.00;;;;;;6235488;23;19923;-65
2024/01/07 00:06:09;;;;;;;;;;;-2.10;100.00;;;;;;6235051;23;19922;-65
2024/01/07 00:08:36;;;;;;;;;;;-2.10;100.00;;;;;;6234842;23;19973;-65
2024/01/07 00:11:03;;;;;;;;;;;-2.10;100.00;;;;;;6235242;22;19924;-65
2024/01/07 00:13:30;;;;;;;;;;;-2.10;100.00;;;;;;6235213;23;19939;-66
2024/01/07 00:15:56;;;;;;;;;;;-2.10;100.00;;;;;;6234140;23;20359;-66
2024/01/07 00:18:24;;;;;;;;;;;-2.10;100.00;;;;;;6235218;23;20002;-66
2024/01/07 00:20:51;;;;;;;;;;;-2.10;100.00;;;;;;6235058;23;19919;-66
2024/01/07 00:23:18;;;;;;;;;;;-2.10;100.00;;;;;;6234954;23;19993;-66
2024/01/07 00:25:45;;;;;;;;;;;-2.10;100.00;;;;;;6235179;22;19920;-66
2024/01/07 00:28:11;;;;;;;;;;;-2.10;100.00;;;;;;6235135;23;20002;-65
2024/01/07 00:30:38;;;;;;;;;;;-2.10;100.00;;;;;;6234104;23;20575;-66
2024/01/07 00:33:05;;;;;;;;;;;-2.10;100.00;;;;;;6235485;22;19919;-66
2024/01/07 00:35:32;;;;;;;;;;;-2.10;100.00;;;;;;6235736;23;20425;-66
2024/01/07 00:37:59;;;;;;;;;;;-2.10;100.00;;;;;;6235934;23;19926;-65
2024/01/07 00:40:26;;;;;;;;;;;-2.10;100.00;;;;;;6208378;23;19973;-66
2024/01/07 00:42:53;;;;;;;;;;;-2.10;100.00;;;;;;6235303;23;20392;-66
2024/01/07 00:45:19;;;;;;;;;;;-2.10;100.00;;;;;;6208517;23;19923;-66
2024/01/07 00:47:46;;;;;;;;;;;-2.10;100.00;;;;;;6235499;23;19919;-66
2024/01/07 00:50:13;;;;;;;;;;;-2.10;100.00;;;;;;6234723;23;20722;-66
2024/01/07 00:52:42;;;;;;;;;;;-2.10;100.00;;;;;;6235642;23;19926;-66
2024/01/07 00:55:09;;;;;;;;;;;-2.10;100.00;;;;;;6236079;23;19923;-66
2024/01/07 00:57:36;;;;;;;;;;;-2.10;100.00;;;;;;6236973;23;19973;-66
2024/01/07 01:00:06;;;;;;;;;;;-2.10;100.00;;;;;;6237638;23;19930;-66
2024/01/07 01:02:33;;;;;;;;;;;-2.10;100.00;;;;;;6236892;23;20681;-66
2024/01/07 01:05:00;;;;;;;;;;;-2.10;100.00;;;;;;6236550;23;19988;-66
2024/01/07 01:07:27;;;;;;;;;;;-2.10;100.00;;;;;;6236865;22;20301;-66
2024/01/07 01:09:54;;;;;;;;;;;-2.10;100.00;;;;;;6210059;23;19984;-66
2024/01/07 01:12:20;;;;;;;;;;;-2.10;100.00;;;;;;6210376;23;19915;-66
2024/01/07 01:14:47;;;;;;;;;;;-2.10;100.00;;;;;;6236831;23;19924;-66
2024/01/07 01:17:14;;;;;;;;;;;-2.10;100.00;;;;;;6235428;23;20013;-66
2024/01/07 01:19:41;;;;;;;;;;;-2.10;100.00;;;;;;6210389;23;20293;-66
2024/01/07 01:22:09;;;;;;;;;;;-2.10;100.00;;;;;;6236471;23;19926;-66
2024/01/07 01:24:36;;;;;;;;;;;-2.10;100.00;;;;;;6236417;23;19923;-66
2024/01/07 01:27:03;;;;;;;;;;;-2.10;100.00;;;;;;6236221;23;19919;-66
2024/01/07 01:29:29;;;;;;;;;;;-2.10;100.00;;;;;;6210470;23;19919;-66
2024/01/07 01:31:57;;;;;;;;;;;-2.10;100.00;;;;;;6210119;23;19923;-66
2024/01/07 01:34:23;;;;;;;;;;;-2.10;100.00;;;;;;6236282;23;19920;-66
2024/01/07 01:36:50;;;;;;;;;;;-2.10;100.00;;;;;;6236391;23;19934;-66
2024/01/07 01:39:18;;;;;;;;;;;-2.10;100.00;;;;;;6209934;23;19920;-66
2024/01/07 01:41:44;;;;;;;;;;;-2.10;100.00;;;;;;6236299;22;19923;-66
2024/01/07 01:44:11;;;;;;;;;;;-2.10;100.00;;;;;;6237520;23;19926;-66
2024/01/07 01:46:38;;;;;;;;;;;-2.10;100.00;;;;;;6236410;23;20530;-66
2024/01/07 01:49:06;;;;;;;;;;;-2.10;100.00;;;;;;6209377;23;19919;-66
2024/01/07 01:51:33;;;;;;;;;;;-2.10;100.00;;;;;;6209743;23;20673;-66
2024/01/07 01:54:01;;;;;;;;;;;-2.10;100.00;;;;;;6236894;23;20287;-66
2024/01/07 01:56:28;;;;;;;;;;;-2.10;100.00;;;;;;6236122;23;19927;-66
2024/01/07 01:58:55;;;;;;;;;;;-2.10;100.00;;;;;;6208980;23;19977;-66
2024/01/07 02:01:23;;;;;;;;;;;-2.10;100.00;;;;;;6235999;22;19923;-66
2024/01/07 02:03:51;;;;;;;;;;;-2.10;100.00;;;;;;6236139;22;19919;-66
2024/01/07 02:06:19;;;;;;;;;;;-2.10;100.00;;;;;;6236220;23;19989;-66
2024/01/07 02:08:45;;;;;;;;;;;-2.10;100.00;;;;;;6235956;23;20310;-66
2024/01/07 02:11:16;;;;;;;;;;;-2.10;100.00;;;;;;6235991;23;19927;-66
2024/01/07 02:13:43;;;;;;;;;;;-2.10;100.00;;;;;;6234347;22;20429;-72
2024/01/07 02:16:10;;;;;;;;;;;-2.10;100.00;;;;;;6235116;23;19973;-71
2024/01/07 02:18:37;;;;;;;;;;;-2.10;100.00;;;;;;6236499;23;19928;-71
2024/01/07 02:21:04;;;;;;;;;;;-2.10;100.00;;;;;;6207355;23;19923;-72
2024/01/07 02:23:31;;;;;;;;;;;-2.10;100.00;;;;;;6236542;22;19916;-71
2024/01/07 02:25:58;;;;;;;;;;;-2.10;100.00;;;;;;6235561;22;20613;-71
2024/01/07 02:28:24;;;;;;;;;;;-2.10;100.00;;;;;;6209382;23;19920;-70
2024/01/07 02:30:51;;;;;;;;;;;-2.10;100.00;;;;;;6235908;23;19975;-71
2024/01/07 02:33:18;;;;;;;;;;;-2.10;100.00;;;;;;6236814;23;19919;-70
2024/01/07 02:35:45;;;;;;;;;;;-2.10;100.00;;;;;;6236471;23;19919;-70
2024/01/07 02:38:12;;;;;;;;;;;-2.10;100.00;;;;;;6235764;23;20310;-71
2024/01/07 02:40:38;;;;;;;;;;;-2.10;100.00;;;;;;6236219;23;20049;-70
2024/01/07 02:43:05;;;;;;;;;;;-2.10;100.00;;;;;;6236602;23;19922;-70
2024/01/07 02:45:32;;;;;;;;;;;-2.10;100.00;;;;;;6208726;23;20368;-70
2024/01/07 02:47:59;;;;;;;;;;;-2.00;100.00;;;;;;6236008;23;19919;-70
2024/01/07 02:50:26;;;;;;;;;;;-2.10;100.00;;;;;;6236058;23;19989;-70
2024/01/07 02:52:53;;;;;;;;;;;-2.10;100.00;;;;;;6236021;23;19915;-70
2024/01/07 02:55:20;;;;;;;;;;;-2.10;100.00;;;;;;6209021;23;19919;-70
2024/01/07 02:57:47;;;;;;;;;;;-2.00;100.00;;;;;;6235940;23;20392;-70
2024/01/07 03:00:14;;;;;;;;;;;-2.00;100.00;;;;;;6235697;23;19943;-70
2024/01/07 03:02:41;;;;;;;;;;;-2.00;100.00;;;;;;6209589;23;19925;-70
2024/01/07 03:05:08;;;;;;;;;;;-2.00;100.00;;;;;;6208880;23;19971;-70
2024/01/07 03:07:34;;;;;;;;;;;-2.00;100.00;;;;;;6235059;23;19919;-70
2024/01/07 03:10:01;;;;;;;;;;;-2.00;100.00;;;;;;6208802;23;19965;-70
2024/01/07 03:12:28;;;;;;;;;;;-2.00;100.00;;;;;;6235523;23;19998;-71
2024/01/07 03:14:55;;;;;;;;;;;-2.00;100.00;;;;;;6208603;23;19924;-71
2024/01/07 03:17:22;;;;;;;;;;;-2.00;100.00;;;;;;6235564;23;19919;-70
2024/01/07 03:19:49;;;;;;;;;;;-2.00;100.00;;;;;;6235729;23;19998;-70
2024/01/07 03:22:16;;;;;;;;;;;-2.00;100.00;;;;;;6235371;22;19920;-70
2024/01/07 03:24:42;;;;;;;;;;;-2.00;100.00;;;;;;6235853;23;19985;-70
2024/01/07 03:27:09;;;;;;;;;;;-2.00;100.00;;;;;;6234870;23;20289;-71
2024/01/07 03:29:36;;;;;;;;;;;-2.00;100.00;;;;;;6234863;23;19924;-70
2024/01/07 03:32:03;;;;;;;;;;;-1.90;100.00;;;;;;6235014;23;19973;-70
2024/01/07 03:34:30;;;;;;;;;;;-1.90;100.00;;;;;;6235613;23;19923;-71
2024/01/07 03:36:57;;;;;;;;;;;-1.90;100.00;;;;;;6232670;23;20567;-70
2024/01/07 03:39:24;;;;;;;;;;;-1.90;100.00;;;;;;6235647;23;19923;-71
2024/01/07 03:41:54;;;;;;;;;;;-1.90;100.00;;;;;;6208250;23;19934;-70
2024/01/07 03:44:21;;;;;;;;;;;-1.90;100.00;;;;;;6235481;22;20392;-70
2024/01/07 03:46:48;;;;;;;;;;;-1.90;100.00;;;;;;6235069;22;19928;-70
2024/01/07 03:49:15;;;;;;;;;;;-1.80;100.00;;;;;;6235401;23;19915;-71
2024/01/07 03:51:42;;;;;;;;;;;-1.80;100.00;;;;;;6235693;23;19920;-70
2024/01/07 03:54:09;;;;;;;;;;;-1.80;100.00;;;;;;6234925;23;19919;-71
2024/01/07 03:56:36;;;;;;;;;;;-1.80;100.00;;;;;;6235338;23;19919;-72
2024/01/07 03:59:02;;;;;;;;;;;-1.80;100.00;;;;;;6235213;23;19954;-66
2024/01/07 04:01:29;;;;;;;;;;;-1.80;100.00;;;;;;6234409;23;20230;-66
2024/01/07 04:03:56;;;;;;;;;;;-1.70;100.00;;;;;;6235434;23;19923;-66
2024/01/07 04:06:23;;;;;;;;;;;-1.70;100.00;;;;;;6234802;23;20333;-66
2024/01/07 04:08:50;;;;;;;;;;;-1.70;100.00;;;;;;6235172;23;19943;-66
2024/01/07 04:11:16;;;;;;;;;;;-1.70;100.00;;;;;;6234962;23;19942;-66
2024/01/07 04:13:43;;;;;;;;;;;-1.70;100.00;;;;;;6235089;23;20671;-66
2024/01/07 04:16:19;;;;;;;;;;;-1.70;100.00;;;;;;6234334;23;20000;-66
2024/01/07 04:18:46;;;;;;;;;;;-1.70;100.00;;;;;;6208037;23;19926;-66
2024/01/07 04:21:19;;;;;;;;;;;-1.60;100.00;;;;;;6234779;23;20018;-66
2024/01/07 04:23:46;;;;;;;;;;;-1.60;100.00;;;;;;6207836;23;19919;-66
2024/01/07 04:26:13;;;;;;;;;;;-1.60;100.00;;;;;;6208078;23;19950;-66
2024/01/07 04:28:43;;;;;;;;;;;-1.60;100.00;;;;;;6234144;23;19998;-66
2024/01/07 04:31:10;;;;;;;;;;;-1.60;100.00;;;;;;6235082;23;19923;-66
2024/01/07 04:33:37;;;;;;;;;;;-1.60;100.00;;;;;;6234432;23;20284;-66
2024/01/07 04:36:05;;;;;;;;;;;-1.60;100.00;;;;;;6208034;23;20264;-66
2024/01/07 04:38:31;;;;;;;;;;;-1.60;100.00;;;;;;6233569;23;20349;-66
2024/01/07 04:40:58;;;;;;;;;;;-1.50;100.00;;;;;;6208104;23;19919;-66
2024/01/07 04:43:25;;;;;;;;;;;-1.50;100.00;;;;;;6208395;23;19919;-66
2024/01/07 04:45:52;;;;;;;;;;;-1.50;100.00;;;;;;6234209;23;19920;-66
2024/01/07 04:48:18;;;;;;;;;;;-1.50;100.00;;;;;;6233914;23;19929;-66
2024/01/07 04:50:45;;;;;;;;;;;-1.50;100.00;;;;;;6234635;23;19920;-66
2024/01/07 04:53:12;;;;;;;;;;;-1.50;100.00;;;;;;6234610;23;19924;-67
2024/01/07 04:55:39;;;;;;;;;;;-1.50;100.00;;;;;;6208076;23;19923;-66
2024/01/07 04:58:06;;;;;;;;;;;-1.50;100.00;;;;;;6235234;23;19974;-66
2024/01/07 05:00:33;;;;;;;;;;;-1.50;100.00;;;;;;6235029;23;19919;-66
2024/01/07 05:03:00;;;;;;;;;;;-1.50;100.00;;;;;;6234089;23;20241;-66
2024/01/07 05:05:27;;;;;;;;;;;-1.50;100.00;;;;;;6235121;23;19942;-66
2024/01/07 05:07:54;;;;;;;;;;;-1.40;100.00;;;;;;6234601;23;20599;-66
2024/01/07 05:10:20;;;;;;;;;;;-1.50;100.00;;;;;;6208785;23;20229;-66
2024/01/07 05:12:47;;;;;;;;;;;-1.50;100.00;;;;;;6234761;23;19999;-66
2024/01/07 05:15:14;;;;;;;;;;;-1.40;100.00;;;;;;6234935;23;19990;-66
2024/01/07 05:17:41;;;;;;;;;;;-1.40;100.00;;;;;;6233979;23;19965;-66
2024/01/07 05:20:08;;;;;;;;;;;-1.40;100.00;;;;;;6233956;23;19966;-66
2024/01/07 05:22:35;;;;;;;;;;;-1.40;100.00;;;;;;6234652;23;19923;-66
2024/01/07 05:25:02;;;;;;;;;;;-1.40;100.00;;;;;;6237215;23;19919;-66
2024/01/07 05:27:30;;;;;;;;;;;-1.50;100.00;;;;;;6208001;23;19998;-66
2024/01/07 05:29:57;;;;;;;;;;;-1.40;100.00;;;;;;6234215;23;19915;-66
2024/01/07 05:32:24;;;;;;;;;;;-1.50;100.00;;;;;;6234265;23;20276;-66
2024/01/07 05:34:51;;;;;;;;;;;-1.50;100.00;;;;;;6234405;23;19977;-66
2024/01/07 05:37:18;;;;;;;;;;;-1.50;100.00;;;;;;6234553;23;19919;-66
2024/01/07 05:39:45;;;;;;;;;;;-1.50;100.00;;;;;;6234543;23;20413;-66
2024/01/07 05:42:11;;;;;;;;;;;-1.50;100.00;;;;;;6236300;23;19967;-66
2024/01/07 05:44:40;;;;;;;;;;;-1.50;100.00;;;;;;6236083;23;19974;-66
2024/01/07 05:47:07;;;;;;;;;;;-1.50;100.00;;;;;;6236137;23;19923;-66
2024/01/07 05:49:33;;;;;;;;;;;-1.50;100.00;;;;;;6236414;23;20017;-66
2024/01/07 05:52:00;;;;;;;;;;;-1.50;100.00;;;;;;6210215;23;19923;-65
2024/01/07 05:54:27;;;;;;;;;;;-1.50;100.00;;;;;;6209753;23;19969;-66
2024/01/07 05:56:58;;;;;;;;;;;-1.50;100.00;;;;;;6235527;23;19934;-66
2024/01/07 05:59:24;;;;;;;;;;;-1.50;100.00;;;;;;6236955;23;19919;-65
2024/01/07 06:01:51;;;;;;;;;;;-1.50;100.00;;;;;;6235601;23;20268;-65
2024/01/07 06:04:18;;;;;;;;;;;-1.50;100.00;;;;;;6235284;22;19962;-66
2024/01/07 06:06:45;;;;;;;;;;;-1.50;100.00;;;;;;6234545;22;19927;-65
2024/01/07 06:09:13;;;;;;;;;;;-1.50;100.00;;;;;;6235749;23;20368;-66
2024/01/07 06:11:39;;;;;;;;;;;-1.50;100.00;;;;;;6235637;23;19931;-66
2024/01/07 06:14:07;;;;;;;;;;;-1.50;100.00;;;;;;6236380;23;19970;-66
2024/01/07 06:16:33;;;;;;;;;;;-1.50;100.00;;;;;;6208276;23;19962;-70
2024/01/07 06:19:00;;;;;;;;;;;-1.50;100.00;;;;;;6210893;23;19923;-70
2024/01/07 06:21:27;;;;;;;;;;;-1.50;100.00;;;;;;6207514;23;19926;-71
2024/01/07 06:23:54;;;;;;;;;;;-1.50;100.00;;;;;;6235131;23;19919;-70
2024/01/07 06:26:20;;;;;;;;;;;-1.50;100.00;;;;;;6208077;23;20324;-71
2024/01/07 06:28:47;;;;;;;;;;;-1.50;100.00;;;;;;6209048;23;19920;-70
2024/01/07 06:31:14;;;;;;;;;;;-1.50;100.00;;;;;;6235584;23;19923;-70
2024/01/07 06:33:41;;;;;;;;;;;-1.50;100.00;;;;;;6235365;23;19920;-70
2024/01/07 06:36:08;;;;;;;;;;;-1.50;100.00;;;;;;6235485;23;19981;-70
2024/01/07 06:38:35;;;;;;;;;;;-1.50;100.00;;;;;;6236187;23;19919;-70
2024/01/07 06:41:04;;;;;;;;;;;-1.60;100.00;;;;;;6235818;23;20278;-71
2024/01/07 06:43:32;;;;;;;;;;;-1.60;100.00;;;;;;6209426;23;20185;-70
2024/01/07 06:45:58;;;;;;;;;;;-1.70;100.00;;;;;;6234716;23;19919;-71
2024/01/07 06:48:25;;;;;;;;;;;-1.70;100.00;;;;;;6235350;23;19920;-70
2024/01/07 06:50:52;;;;;;;;;;;-1.70;100.00;;;;;;6235860;23;19990;-70
2024/01/07 06:53:19;;;;;;;;;;;-1.60;100.00;;;;;;6234984;23;20615;-71
2024/01/07 06:55:46;;;;;;;;;;;-1.60;100.00;;;;;;6234945;23;19919;-71
2024/01/07 06:58:13;;;;;;;;;;;-1.60;100.00;;;;;;6234507;22;19919;-71
2024/01/07 07:00:39;;;;;;;;;;;-1.60;100.00;;;;;;6235266;23;19943;-71
2024/01/07 07:03:06;;;;;;;;;;;-1.60;100.00;;;;;;6208506;23;19920;-70
2024/01/07 07:05:33;;;;;;;;;;;-1.60;100.00;;;;;;6233566;23;20603;-71
2024/01/07 07:08:01;;;;;;;;;;;-1.60;100.00;;;;;;6234988;23;19920;-70
2024/01/07 07:10:28;;;;;;;;;;;-1.60;100.00;;;;;;6235126;23;19969;-71
2024/01/07 07:12:55;;;;;;;;;;;-1.60;100.00;;;;;;6235287;23;19919;-70
2024/01/07 07:15:21;;;;;;;;;;;-1.60;100.00;;;;;;6235888;23;19923;-71
2024/01/07 07:17:48;;;;;;;;;;;-1.60;100.00;;;;;;6235137;23;19942;-70
2024/01/07 07:20:15;;;;;;;;;;;-1.60;100.00;;;;;;6235725;22;19920;-70
2024/01/07 07:22:42;;;;;;;;;;;-1.60;100.00;;;;;;6235379;23;19955;-70
2024/01/07 07:25:09;;;;;;;;;;;-1.60;100.00;;;;;;6234349;23;19966;-71
2024/01/07 07:27:36;;;;;;;;;;;-1.70;100.00;;;;;;6235405;23;19920;-70
2024/01/07 07:30:03;;;;;;;;;;;-1.70;100.00;;;;;;6233356;23;19994;-70
2024/01/07 07:32:30;;;;;;;;;;;-1.70;100.00;;;;;;6234889;23;19986;-70
2024/01/07 07:34:56;;;;;;;;;;;-1.80;100.00;;;;;;6232662;23;19925;-70
2024/01/07 07:37:25;;;;;;;;;;;-1.80;100.00;;;;;;6207319;23;19951;-70
2024/01/07 07:39:51;;;;;;;;;;;-1.80;100.00;;;;;;6235211;23;19934;-70
2024/01/07 07:42:18;;;;;;;;;;;-1.80;100.00;;;;;;6235893;23;19919;-70
2024/01/07 07:44:45;;;;;;;;;;;-1.90;100.00;;;;;;6208110;23;19923;-71
2024/01/07 07:47:12;;;;;;;;;;;-1.90;100.00;;;;;;6207879;23;19989;-71
2024/01/07 07:49:40;;;;;;;;;;;-1.90;100.00;;;;;;6235217;23;19920;-71
2024/01/07 07:52:08;;;;;;;;;;;-2.00;100.00;;;;;;6235175;23;20522;-70
2024/01/07 07:54:38;;;;;;;;;;;-2.00;100.00;;;;;;6208049;23;19994;-70
2024/01/07 07:57:05;;;;;;;;;;;-2.00;100.00;;;;;;6234860;23;19920;-72
2024/01/07 07:59:32;;;;;;;;;;;-2.10;100.00;;;;;;6235199;23;19962;-66
2024/01/07 08:01:59;;;;;;;;;;;-2.10;100.00;;;;;;6207003;23;19920;-71
2024/01/07 08:04:26;;;;;;;;;;;-2.10;100.00;;;;;;6232678;23;19926;-66
2024/01/07 08:06:56;;;;;;;;;;;-2.10;100.00;;;;;;6233654;23;19923;-66
2024/01/07 08:09:25;;;;;;;;;;;-2.10;100.00;;;;;;6208728;23;20248;-66
2024/01/07 08:11:51;;;;;;;;;;;-2.20;100.00;;;;;;6233726;23;19985;-66
2024/01/07 08:14:18;;;;;;;;;;;-2.10;100.00;;;;;;6233449;23;19978;-66
2024/01/07 08:16:45;;;;;;;;;;;-2.10;100.00;;;;;;6232086;23;19943;-66
2024/01/07 08:19:12;;;;;;;;;;;-2.10;100.00;;;;;;6204755;23;20021;-66
2024/01/07 08:21:39;;;;;;;;;;;-2.10;100.00;;;;;;6232014;22;19954;-66
2024/01/07 08:24:06;;;;;;;;;;;-2.10;100.00;;;;;;6206297;23;19919;-67
2024/01/07 08:26:33;;;;;;;;;;;-2.10;100.00;;;;;;6207762;23;19996;-66
2024/01/07 08:28:59;;;;;;;;;;;-2.20;100.00;;;;;;6234805;23;19970;-66
2024/01/07 08:31:26;;;;;;;;;;;-2.20;100.00;;;;;;6233749;22;19919;-66
2024/01/07 08:33:53;;;;;;;;;;;-2.30;100.00;;;;;;6233367;23;19967;-66
2024/01/07 08:36:20;;;;;;;;;;;-2.30;100.00;;;;;;6234755;23;19933;-66
2024/01/07 08:38:47;;;;;;;;;;;-2.30;100.00;;;;;;6234841;23;20291;-67
2024/01/07 08:41:17;;;;;;;;;;;-2.30;100.00;;;;;;6234608;23;19993;-67
2024/01/07 08:43:45;;;;;;;;;;;-2.30;100.00;;;;;;6234071;23;20272;-66
2024/01/07 08:46:13;;;;;;;;;;;-2.30;100.00;;;;;;6234021;23;19924;-67
2024/01/07 08:48:40;;;;;;;;;;;-2.30;100.00;;;;;;6207706;23;19915;-71
2024/01/07 08:51:08;;;;;;;;;;;-2.30;100.00;;;;;;6234347;23;19963;-71
2024/01/07 08:53:35;;;;;;;;;;;-2.30;100.00;;;;;;6232711;23;19981;-71
2024/01/07 08:56:01;;;;;;;;;;;-2.30;100.00;;;;;;6206818;23;19920;-70
2024/01/07 08:58:28;;;;;;;;;;;-2.30;100.00;;;;;;6231592;23;19920;-70
2024/01/07 09:00:55;;;;;;;;;;;-2.30;100.00;;;;;;6235355;23;19923;-69
2024/01/07 09:03:22;;;;;;;;;;;-2.20;100.00;;;;;;6233768;22;19923;-70
2024/01/07 09:05:49;;;;;;;;;;;-2.20;100.00;;;;;;6239043;23;19934;-66
2024/01/07 09:08:16;;;;;;;;;;;-2.20;100.00;;;;;;6233363;23;19920;-66
2024/01/07 09:10:42;;;;;;;;;;;-2.10;100.00;;;;;;6233222;23;19973;-66
2024/01/07 09:13:09;;;;;;;;;;;-2.10;100.00;;;;;;6232450;23;19997;-67
2024/01/07 09:15:37;;;;;;;;;;;-2.10;100.00;;;;;;6234209;23;19927;-66
2024/01/07 09:18:04;;;;;;;;;;;-2.00;100.00;;;;;;6235203;23;20672;-67
2024/01/07 09:20:31;;;;;;;;;;;-2.00;100.00;;;;;;6235518;22;20316;-67
2024/01/07 09:22:58;;;;;;;;;;;-1.90;100.00;;;;;;6235748;23;19919;-67
2024/01/07 09:25:26;;;;;;;;;;;-1.70;100.00;;;;;;6236814;23;19920;-66
2024/01/07 09:27:53;;;;;;;;;;;-1.60;100.00;;;;;;6209653;23;19930;-67
2024/01/07 09:30:20;;;;;;;;;;;-1.50;100.00;;;;;;6211194;23;19919;-66
2024/01/07 09:32:46;;;;;;;;;;;-1.40;100.00;;;;;;6236177;23;20414;-67
2024/01/07 09:35:13;;;;;;;;;;;-1.40;100.00;;;;;;6210788;23;19966;-67
2024/01/07 09:37:41;;;;;;;;;;;-1.40;100.00;;;;;;6237299;23;19987;-67
2024/01/07 09:40:08;;;;;;;;;;;-1.40;100.00;;;;;;6238030;23;19943;-66
2024/01/07 09:42:35;;;;;;;;;;;-1.40;100.00;;;;;;6210643;23;19926;-67
2024/01/07 09:45:04;;;;;;;;;;;-1.40;100.00;;;;;;6210533;23;19923;-67
2024/01/07 09:47:31;;;;;;;;;;;-1.40;100.00;;;;;;6236217;23;19958;-66
2024/01/07 09:49:58;;;;;;;;;;;-1.30;100.00;;;;;;6210752;23;20352;-66
2024/01/07 09:52:26;;;;;;;;;;;-1.30;100.00;;;;;;6236622;23;20638;-66
2024/01/07 09:54:56;;;;;;;;;;;-1.20;100.00;;;;;;6236806;23;19977;-66
2024/01/07 09:57:23;;;;;;;;;;;-1.20;100.00;;;;;;6236786;23;20015;-67
2024/01/07 09:59:50;;;;;;;;;;;-1.10;100.00;;;;;;6236444;23;20641;-66
2024/01/07 10:02:17;;;;;;;;;;;-1.10;100.00;;;;;;6235954;23;19926;-66
2024/01/07 10:04:48;;;;;;;;;;;-1.10;100.00;;;;;;6208702;23;19920;-66
2024/01/07 10:07:15;;;;;;;;;;;-1.10;100.00;;;;;;6200630;23;19919;-66
2024/01/07 10:09:42;;;;;;;;;;;-1.10;100.00;;;;;;6229922;23;19965;-66
2024/01/07 10:12:10;;;;;;;;;;;-1.00;100.00;;;;;;6230967;23;20506;-66
2024/01/07 10:14:36;;;;;;;;;;;-1.00;100.00;;;;;;6205749;23;20438;-66
2024/01/07 10:17:13;;;;;;;;;;;-1.00;100.00;;;;;;6233079;23;19931;-66
2024/01/07 10:19:42;;;;;;;;;;;-1.00;100.00;;;;;;6207471;23;20656;-65
2024/01/07 10:22:11;;;;;;;;;;;-0.90;100.00;;;;;;6210209;23;19919;-67
2024/01/07 10:24:39;;;;;;;;;;;-0.80;100.00;;;;;;6237013;23;19919;-67
2024/01/07 10:27:08;;;;;;;;;;;-0.70;100.00;;;;;;6236709;23;19920;-67
2024/01/07 10:29:35;;;;;;;;;;;-0.70;100.00;;;;;;6236645;23;19958;-67
2024/01/07 10:32:04;;;;;;;;;;;-0.60;100.00;;;;;;6237309;23;19919;-67
2024/01/07 10:34:31;;;;;;;;;;;-0.60;100.00;;;;;;6210477;23;19916;-67
2024/01/07 10:36:59;;;;;;;;;;;-0.50;100.00;;;;;;6209855;23;19956;-67
2024/01/07 10:39:27;;;;;;;;;;;-0.40;100.00;;;;;;6236922;23;19919;-67
2024/01/07 10:41:57;;;;;;;;;;;-0.20;100.00;;;;;;6210266;23;19934;-67
2024/01/07 10:44:29;;;;;;;;;;;-0.30;100.00;;;;;;6210014;23;19927;-67
2024/01/07 10:46:56;;;;;;;;;;;-0.30;100.00;;;;;;6234330;23;19916;-67
2024/01/07 10:49:25;;;;;;;;;;;-0.20;100.00;;;;;;6208444;23;20670;-67
2024/01/07 10:52:04;;;;;;;;;;;-0.20;100.00;;;;;;6208657;23;19919;-67
2024/01/07 10:54:33;;;;;;;;;;;-0.30;100.00;;;;;;6236222;23;19974;-67
2024/01/07 10:57:07;;;;;;;;;;;-0.30;100.00;;;;;;6234977;22;19927;-67
2024/01/07 10:59:34;;;;;;;;;;;-0.20;100.00;;;;;;6236340;23;20001;-67
2024/01/07 11:02:02;;;;;;;;;;;-0.30;100.00;;;;;;6236192;23;19919;-67
2024/01/07 11:04:34;;;;;;;;;;;-0.20;100.00;;;;;;6236928;23;20304;-67
2024/01/07 11:07:02;;;;;;;;;;;0.00;100.00;;;;;;6236720;23;19919;-67
2024/01/07 11:09:37;;;;;;;;;;;-0.10;100.00;;;;;;6236484;23;19919;-67
2024/01/07 11:12:05;;;;;;;;;;;-0.20;100.00;;;;;;6210262;23;19923;-66
2024/01/07 11:14:35;;;;;;;;;;;-0.10;100.00;;;;;;6235779;23;19969;-67
2024/01/07 11:17:02;;;;;;;;;;;-0.10;100.00;;;;;;6235027;22;19977;-66
2024/01/07 11:19:30;;;;;;;;;;;0.00;100.00;;;;;;6234804;23;19969;-67
2024/01/07 11:22:29;;;;;;;;;;;0.00;100.00;;;;;;6233644;22;19919;-67
2024/01/07 11:24:57;;;;;;;;;;;-0.10;100.00;;;;;;6184581;23;19926;-67
2024/01/07 11:27:24;;;;;;;;;;;0.00;100.00;;;;;;6234755;23;19919;-67
2024/01/07 11:29:55;;;;;;;;;;;0.00;100.00;;;;;;6234740;23;19926;-67
2024/01/07 11:32:22;;;;;;;;;;;0.00;100.00;;;;;;6235309;23;19919;-67
2024/01/07 11:34:52;;;;;;;;;;;-0.10;100.00;;;;;;6208404;23;19988;-67
2024/01/07 11:37:20;;;;;;;;;;;-0.20;100.00;;;;;;6208674;23;19919;-67
2024/01/07 11:39:48;;;;;;;;;;;-0.30;100.00;;;;;;6233192;22;19962;-68
2024/01/07 11:42:15;;;;;;;;;;;-0.20;100.00;;;;;;6234763;23;19930;-67
2024/01/07 11:44:45;;;;;;;;;;;0.00;100.00;;;;;;6234045;23;20487;-69
2024/01/07 11:47:11;;;;;;;;;;;0.00;100.00;;;;;;6234640;23;19969;-67
2024/01/07 11:49:39;;;;;;;;;;;0.00;100.00;;;;;;6207600;23;19919;-65
2024/01/07 11:52:06;;;;;;;;;;;0.00;100.00;;;;;;6234504;23;19934;-68
2024/01/07 11:54:32;;;;;;;;;;;0.00;100.00;;;;;;6234835;23;19969;-68
2024/01/07 11:56:59;;;;;;;;;;;-0.10;100.00;;;;;;6207619;23;19925;-68
2024/01/07 11:59:26;;;;;;;;;;;0.00;100.00;;;;;;6234064;23;19916;-67
2024/01/07 12:01:54;;;;;;;;;;;0.10;100.00;;;;;;6230877;23;19919;-67
2024/01/07 12:04:21;;;;;;;;;;;0.00;100.00;;;;;;6231894;23;19915;-67
2024/01/07 12:06:48;;;;;;;;;;;0.00;100.00;;;;;;6204683;23;19926;-67
2024/01/07 12:09:21;;;;;;;;;;;0.00;100.00;;;;;;6237539;22;19998;-73
2024/01/07 12:11:48;;;;;;;;;;;-0.10;100.00;;;;;;6228809;23;19919;-72
2024/01/07 12:14:15;;;;;;;;;;;0.00;100.00;;;;;;6231652;23;19919;-73
2024/01/07 12:16:42;;;;;;;;;;;0.00;100.00;;;;;;6230226;23;19943;-72
2024/01/07 12:19:09;;;;;;;;;;;-0.10;100.00;;;;;;6229961;23;20131;-72
2024/01/07 12:21:37;;;;;;;;;;;-0.10;100.00;;;;;;6230628;23;19926;-73
2024/01/07 12:24:04;;;;;;;;;;;-0.20;100.00;;;;;;6230776;23;19950;-72
2024/01/07 12:26:33;;;;;;;;;;;-0.20;100.00;;;;;;6231284;23;20566;-72
2024/01/07 12:29:03;;;;;;;;;;;-0.30;100.00;;;;;;6230982;23;19930;-72
2024/01/07 12:31:31;;;;;;;;;;;-0.30;100.00;;;;;;6232042;23;19943;-72
2024/01/07 12:33:58;;;;;;;;;;;-0.30;100.00;;;;;;6232276;23;19977;-73
2024/01/07 12:36:25;;;;;;;;;;;-0.20;100.00;;;;;;6204268;23;20018;-72
2024/01/07 12:38:55;;;;;;;;;;;-0.30;100.00;;;;;;6231157;23;19926;-73
2024/01/07 12:41:25;;;;;;;;;;;-0.40;100.00;;;;;;6204838;23;19981;-73
2024/01/07 12:43:52;;;;;;;;;;;-0.40;100.00;;;;;;6230428;22;20603;-73
2024/01/07 12:48:47;;;;;;;;;;;-0.50;100.00;;;;;;6224199;22;19919;-73
2024/01/07 12:51:14;;;;;;;;;;;-0.60;100.00;;;;;;6233001;22;20005;-72
2024/01/07 12:53:41;;;;;;;;;;;-0.50;100.00;;;;;;6206609;23;19962;-72
2024/01/07 12:56:08;;;;;;;;;;;-0.60;100.00;;;;;;6233316;23;19919;-72
2024/01/07 12:58:34;;;;;;;;;;;-0.60;100.00;;;;;;6207978;23;20654;-72
2024/01/07 13:01:01;;;;;;;;;;;-0.70;100.00;;;;;;6234138;23;20007;-73
2024/01/07 13:03:28;;;;;;;;;;;-0.60;100.00;;;;;;6207100;23;19926;-73
2024/01/07 13:05:55;;;;;;;;;;;-0.60;100.00;;;;;;6231899;23;19991;-72
2024/01/07 13:08:22;;;;;;;;;;;-0.70;100.00;;;;;;6230750;23;19919;-73
2024/01/07 13:10:49;;;;;;;;;;;-0.60;100.00;;;;;;6207776;23;19926;-73
2024/01/07 13:13:17;;;;;;;;;;;-0.70;100.00;;;;;;6234990;23;19919;-73
2024/01/07 13:15:44;;;;;;;;;;;-0.70;100.00;;;;;;6232524;23;19958;-74
2024/01/07 13:18:15;;;;;;;;;;;-0.70;100.00;;;;;;6235050;22;19998;-72
2024/01/07 13:20:42;;;;;;;;;;;-0.80;100.00;;;;;;6235035;23;19969;-70
2024/01/07 13:23:09;;;;;;;;;;;-0.80;100.00;;;;;;6235171;23;19927;-71
2024/01/07 13:25:35;;;;;;;;;;;-0.80;100.00;;;;;;6234260;23;20317;-71
2024/01/07 13:28:02;;;;;;;;;;;-0.80;100.00;;;;;;6234650;23;19922;-71
2024/01/07 13:30:29;;;;;;;;;;;-0.80;100.00;;;;;;6208066;23;19926;-71
2024/01/07 13:32:56;;;;;;;;;;;-0.80;100.00;;;;;;6233685;23;19920;-71
2024/01/07 13:35:24;;;;;;;;;;;-0.80;100.00;;;;;;6233698;23;19945;-71
2024/01/07 13:37:52;;;;;;;;;;;-0.80;100.00;;;;;;6233110;23;19915;-71
2024/01/07 13:40:18;;;;;;;;;;;-0.80;100.00;;;;;;6234742;23;19974;-71
2024/01/07 13:42:50;;;;;;;;;;;-0.80;100.00;;;;;;6234229;23;20038;-71
2024/01/07 13:45:20;;;;;;;;;;;-0.90;100.00;;;;;;6234318;23;19920;-72
2024/01/07 13:47:47;;;;;;;;;;;-0.80;100.00;;;;;;6207230;23;19942;-71
2024/01/07 13:50:14;;;;;;;;;;;-0.90;100.00;;;;;;6233994;23;20270;-72
2024/01/07 13:52:41;;;;;;;;;;;-0.90;100.00;;;;;;6233824;23;19919;-71
2024/01/07 13:55:09;;;;;;;;;;;-1.00;100.00;;;;;;6206569;23;20214;-71
2024/01/07 13:57:36;;;;;;;;;;;-0.90;100.00;;;;;;6233873;23;20394;-71
2024/01/07 14:00:08;;;;;;;;;;;-1.00;100.00;;;;;;6234566;23;19931;-71
2024/01/07 14:02:37;;;;;;;;;;;-0.90;100.00;;;;;;6235578;23;19930;-71
2024/01/07 14:05:08;;;;;;;;;;;-0.90;100.00;;;;;;6235930;23;19997;-72
2024/01/07 14:07:35;;;;;;;;;;;-0.90;100.00;;;;;;6237166;23;19924;-71
2024/01/07 14:10:03;;;;;;;;;;;-0.90;100.00;;;;;;6235664;23;20009;-68